PWSweather.com
Personal Weather Stations
Station Observations
REBOX73
Petalia At Mount Pantokrator, CorfuGR 49081

Petalia At Mount PantokratorCorfuGR 49081

Lat: 39.747915, Lon: 19.841466

Elevation: 2132

Station Type: ws1080

http://pantokratoras-kerkyra.meteoclub.gr/

Latest ConditionsUpdated 6:30:01 AM GMT+01:01 Monday, Dec 22, 2014
Currently Today's Max Today's Min Today's Average
Temperature 39.9°F4.4°C 41.4°F5.2°C 37.9°F3.3°C 40.2°F4.6°C
Dew Point 18.2°F-7.7°C 29.7°F-1.3°C 18.2°F-7.7°C 23.3°F-4.8°C
Winds 6.3 mph E10.1 kmh E 7.5 mph E12.1 kmh E - 4.3 mph 6.9 kmh
Wind Gusts 8.3 mph13.4 kmh 10.7 mph17.2 kmh - -
Humidity 41% 63% 41% 51%
Pressure 30.24 in1024.0 mb 30.24 in1024.0 mb 30.20 in1022.7 mb -
Hour Temp Dew Point Humidity Winds Wind Gusts Pressure Precip Precip Rate Daily Precip Total
06:30 AM 39.9°F4.4°C 18.2°F-7.7°C 41% 6.3 mph E10.1 kmh E 8.3 mph13.4 kmh 30.24 in1024.0 mb 0.00 in0.0 mm 0.00 in/hr0.0 mm/hr 0.00 in0.0 mm
06:15 AM 39.2°F4.0°C 19.7°F-6.8°C 45% 4.6 mph E7.4 kmh E 6.0 mph9.7 kmh 30.23 in1023.7 mb 0.00 in0.0 mm 0.00 in/hr0.0 mm/hr 0.00 in0.0 mm
06:00 AM 38.1°F3.4°C 20.2°F-6.6°C 48% 2.7 mph SE4.3 kmh SE 4.5 mph7.2 kmh 30.22 in1023.4 mb 0.00 in0.0 mm 0.00 in/hr0.0 mm/hr 0.00 in0.0 mm
05:45 AM 38.1°F3.4°C 21.1°F-6.1°C 50% 2.7 mph SE4.3 kmh SE 5.4 mph8.7 kmh 30.22 in1023.4 mb 0.00 in0.0 mm 0.00 in/hr0.0 mm/hr 0.00 in0.0 mm
05:30 AM 37.9°F3.3°C 21.9°F-5.6°C 52% 3.4 mph ESE5.5 kmh ESE 5.4 mph8.7 kmh 30.22 in1023.4 mb 0.00 in0.0 mm 0.00 in/hr0.0 mm/hr 0.00 in0.0 mm
05:15 AM 38.1°F3.4°C 22.5°F-5.3°C 53% 3.0 mph ESE4.8 kmh ESE 4.5 mph7.2 kmh 30.21 in1023.0 mb 0.00 in0.0 mm 0.00 in/hr0.0 mm/hr 0.00 in0.0 mm
05:00 AM 39.4°F4.1°C 21.3°F-5.9°C 48% 2.0 mph SSE3.2 kmh SSE 3.8 mph6.1 kmh 30.21 in1023.0 mb 0.00 in0.0 mm 0.00 in/hr0.0 mm/hr 0.00 in0.0 mm
04:45 AM 39.6°F4.2°C 21.5°F-5.8°C 48% 4.6 mph E7.4 kmh E 6.9 mph11.1 kmh 30.21 in1023.0 mb 0.00 in0.0 mm 0.00 in/hr0.0 mm/hr 0.00 in0.0 mm
04:30 AM 40.6°F4.8°C 20.5°F-6.4°C 44% 5.3 mph ESE8.5 kmh ESE 8.3 mph13.4 kmh 30.21 in1023.0 mb 0.00 in0.0 mm 0.00 in/hr0.0 mm/hr 0.00 in0.0 mm
04:15 AM 40.3°F4.6°C 20.1°F-6.6°C 44% 5.3 mph ESE8.5 kmh ESE 8.3 mph13.4 kmh 30.21 in1023.0 mb 0.00 in0.0 mm 0.00 in/hr0.0 mm/hr 0.00 in0.0 mm
04:00 AM 40.6°F4.8°C 20.5°F-6.4°C 44% 5.0 mph ESE8.0 kmh ESE 7.6 mph12.2 kmh 30.21 in1023.0 mb 0.00 in0.0 mm 0.00 in/hr0.0 mm/hr 0.00 in0.0 mm
03:45 AM 39.7°F4.3°C 20.7°F-6.3°C 46% 7.5 mph E12.1 kmh E 10.7 mph17.2 kmh 30.21 in1023.0 mb 0.00 in0.0 mm 0.00 in/hr0.0 mm/hr 0.00 in0.0 mm
03:30 AM 40.6°F4.8°C 22.0°F-5.6°C 47% 4.3 mph E6.9 kmh E 6.0 mph9.7 kmh 30.20 in1022.7 mb 0.00 in0.0 mm 0.00 in/hr0.0 mm/hr 0.00 in0.0 mm
03:15 AM 41.2°F5.1°C 22.0°F-5.6°C 46% 3.1 mph SE5.0 kmh SE 5.4 mph8.7 kmh 30.20 in1022.7 mb 0.00 in0.0 mm 0.00 in/hr0.0 mm/hr 0.00 in0.0 mm
03:00 AM 40.3°F4.6°C 22.7°F-5.2°C 49% 4.1 mph S6.6 kmh S 6.0 mph9.7 kmh 30.22 in1023.4 mb 0.00 in0.0 mm 0.00 in/hr0.0 mm/hr 0.00 in0.0 mm
02:45 AM 40.8°F4.9°C 23.6°F-4.7°C 50% 2.6 mph SSW4.2 kmh SSW 9.2 mph14.8 kmh 30.22 in1023.4 mb 0.00 in0.0 mm 0.00 in/hr0.0 mm/hr 0.00 in0.0 mm
02:30 AM 41.2°F5.1°C 23.0°F-5.0°C 48% 5.9 mph S9.5 kmh S 7.6 mph12.2 kmh 30.21 in1023.0 mb 0.00 in0.0 mm 0.00 in/hr0.0 mm/hr 0.00 in0.0 mm
02:15 AM 41.0°F5.0°C 23.8°F-4.6°C 50% 3.4 mph S5.5 kmh S 6.0 mph9.7 kmh 30.22 in1023.4 mb 0.00 in0.0 mm 0.00 in/hr0.0 mm/hr 0.00 in0.0 mm
02:00 AM 41.2°F5.1°C 24.4°F-4.2°C 51% 3.8 mph S6.1 kmh S 5.4 mph8.7 kmh 30.22 in1023.4 mb 0.00 in0.0 mm 0.00 in/hr0.0 mm/hr 0.00 in0.0 mm
01:45 AM 41.0°F5.0°C 24.7°F-4.1°C 52% 5.7 mph S9.2 kmh S 9.2 mph14.8 kmh 30.22 in1023.4 mb 0.00 in0.0 mm 0.00 in/hr0.0 mm/hr 0.00 in0.0 mm
01:30 AM 40.3°F4.6°C 25.0°F-3.9°C 54% 3.7 mph S6.0 kmh S 6.0 mph9.7 kmh 30.22 in1023.4 mb 0.00 in0.0 mm 0.00 in/hr0.0 mm/hr 0.00 in0.0 mm
01:15 AM 40.3°F4.6°C 25.8°F-3.4°C 56% 3.6 mph S5.8 kmh S 5.4 mph8.7 kmh 30.22 in1023.4 mb 0.00 in0.0 mm 0.00 in/hr0.0 mm/hr 0.00 in0.0 mm
01:00 AM 41.0°F5.0°C 27.4°F-2.6°C 58% 5.2 mph S8.4 kmh S 6.9 mph11.1 kmh 30.22 in1023.4 mb 0.00 in0.0 mm 0.00 in/hr0.0 mm/hr 0.00 in0.0 mm
12:45 AM 41.0°F5.0°C 29.4°F-1.4°C 63% 5.5 mph SW8.9 kmh SW 8.3 mph13.4 kmh 30.21 in1023.0 mb 0.00 in0.0 mm 0.00 in/hr0.0 mm/hr 0.00 in0.0 mm
12:30 AM 40.8°F4.9°C 29.2°F-1.6°C 63% 3.0 mph SSW4.8 kmh SSW 4.5 mph7.2 kmh 30.21 in1023.0 mb 0.00 in0.0 mm 0.00 in/hr0.0 mm/hr 0.00 in0.0 mm
12:15 AM 41.4°F5.2°C 29.3°F-1.5°C 62% 6.4 mph S10.3 kmh S 10.7 mph17.2 kmh 30.20 in1022.7 mb 0.00 in0.0 mm 0.00 in/hr0.0 mm/hr 0.00 in0.0 mm
12:00 AM 41.4°F5.2°C 29.7°F-1.3°C 63% 4.1 mph SW6.6 kmh SW 5.4 mph8.7 kmh 30.21 in1023.0 mb 0.00 in0.0 mm 0.00 in/hr0.0 mm/hr 0.00 in0.0 mm